Time;durP1;ratioP1;P1;durP2;ratioP2;P2;SDS_P1;SDS_P2;PMS_P1;PMS_P2;Temp;Humidity;BMP_temperature;BMP_pressure;BME280_temperature;BME280_humidity;BME280_pressure;Samples;Min_cycle;Max_cycle;Signal;HPM_P1;HPM_P2
2023/10/31 00:01:21;;;;;;;4.77;3.67;;;11.90;99.90;;;;;;5055675;28;20167;-64
2023/10/31 00:03:47;;;;;;;4.10;3.80;;;11.90;99.90;;;;;;5055388;28;20195;-64
2023/10/31 00:06:12;;;;;;;6.40;3.90;;;11.80;99.90;;;;;;5054446;28;20441;-65
2023/10/31 00:08:38;;;;;;;8.53;5.80;;;11.80;99.90;;;;;;5055537;28;20151;-66
2023/10/31 00:11:04;;;;;;;6.67;4.90;;;11.70;99.90;;;;;;5054159;28;20179;-65
2023/10/31 00:13:30;;;;;;;5.77;4.90;;;11.60;99.90;;;;;;5054828;28;20213;-64
2023/10/31 00:15:55;;;;;;;6.37;5.17;;;11.60;99.90;;;;;;5054239;28;20175;-64
2023/10/31 00:18:21;;;;;;;7.63;5.37;;;11.70;99.90;;;;;;5055232;28;20244;-64
2023/10/31 00:20:47;;;;;;;6.47;5.80;;;11.60;99.90;;;;;;5055065;28;20167;-65
2023/10/31 00:23:14;;;;;;;5.33;4.90;;;11.50;99.90;;;;;;5055256;28;20656;-64
2023/10/31 00:25:40;;;;;;;11.00;5.70;;;11.50;99.90;;;;;;5054275;28;20484;-64
2023/10/31 00:28:06;;;;;;;6.00;5.60;;;11.50;99.90;;;;;;5053308;28;20615;-65
2023/10/31 00:30:31;;;;;;;11.90;6.17;;;11.50;99.90;;;;;;5051182;28;20517;-65
2023/10/31 00:32:57;;;;;;;11.57;6.60;;;11.60;99.90;;;;;;5035383;28;20172;-65
2023/10/31 00:35:23;;;;;;;8.80;6.13;;;11.70;99.90;;;;;;5033171;28;20163;-65
2023/10/31 00:37:48;;;;;;;7.47;5.63;;;11.70;99.90;;;;;;5034952;28;20184;-65
2023/10/31 00:40:16;;;;;;;7.10;6.37;;;11.70;99.90;;;;;;5035040;28;20174;-65
2023/10/31 00:42:42;;;;;;;11.17;6.80;;;11.70;99.90;;;;;;5034751;28;20209;-66
2023/10/31 00:45:08;;;;;;;9.00;6.00;;;11.80;99.90;;;;;;5032808;28;20418;-65
2023/10/31 00:47:34;;;;;;;8.70;7.13;;;11.80;99.90;;;;;;5033679;28;20660;-65
2023/10/31 00:50:00;;;;;;;8.97;6.20;;;11.80;99.90;;;;;;5034305;28;20790;-66
2023/10/31 00:52:26;;;;;;;6.63;5.77;;;11.70;99.90;;;;;;5034109;28;20418;-64
2023/10/31 00:54:52;;;;;;;13.70;6.20;;;11.60;99.90;;;;;;5033933;28;20529;-65
2023/10/31 00:57:17;;;;;;;7.10;6.40;;;11.60;99.90;;;;;;5033194;28;20197;-65
2023/10/31 00:59:43;;;;;;;5.93;5.23;;;11.50;99.90;;;;;;5034528;28;20428;-64
2023/10/31 01:02:09;;;;;;;6.47;5.77;;;11.50;99.90;;;;;;5034332;28;20652;-65
2023/10/31 01:04:37;;;;;;;7.77;6.10;;;11.50;99.90;;;;;;5032433;28;20195;-65
2023/10/31 01:07:03;;;;;;;7.50;5.70;;;11.40;99.90;;;;;;5033880;28;20183;-64
2023/10/31 01:09:28;;;;;;;8.33;5.67;;;11.40;99.90;;;;;;5035915;28;20902;-65
2023/10/31 01:11:54;;;;;;;13.43;5.60;;;11.40;99.90;;;;;;5052585;28;20922;-65
2023/10/31 01:14:20;;;;;;;6.97;5.87;;;11.50;99.90;;;;;;5054183;28;20182;-65
2023/10/31 01:16:46;;;;;;;8.60;6.00;;;11.50;99.90;;;;;;5052131;28;20217;-65
2023/10/31 01:19:11;;;;;;;8.57;5.97;;;11.60;99.90;;;;;;5054082;28;20163;-65
2023/10/31 01:21:37;;;;;;;7.20;5.70;;;11.50;99.90;;;;;;5053827;28;20194;-65
2023/10/31 01:24:03;;;;;;;10.10;6.33;;;11.50;99.90;;;;;;5053914;28;20208;-65
2023/10/31 01:26:29;;;;;;;10.70;6.33;;;11.40;99.90;;;;;;5053110;28;20222;-65
2023/10/31 01:28:54;;;;;;;12.37;7.10;;;11.30;99.90;;;;;;5053806;28;20405;-65
2023/10/31 01:31:20;;;;;;;8.50;6.23;;;11.30;99.90;;;;;;5053518;28;20493;-66
2023/10/31 01:33:46;;;;;;;6.50;5.63;;;11.30;99.90;;;;;;5053444;28;20657;-65
2023/10/31 01:36:12;;;;;;;13.27;6.47;;;11.30;99.90;;;;;;5053018;28;20245;-66
2023/10/31 01:38:38;;;;;;;8.43;7.47;;;11.30;99.90;;;;;;5053858;28;20166;-67
2023/10/31 01:41:05;;;;;;;7.40;6.50;;;11.20;99.90;;;;;;5053549;28;20476;-65
2023/10/31 01:43:35;;;;;;;8.10;7.10;;;11.20;99.90;;;;;;5053002;28;20453;-66
2023/10/31 01:46:01;;;;;;;13.00;6.70;;;11.20;99.90;;;;;;5051677;28;20775;-65
2023/10/31 01:48:29;;;;;;;11.63;6.27;;;11.30;99.90;;;;;;5053050;28;20405;-67
2023/10/31 01:50:58;;;;;;;10.53;6.37;;;11.20;99.90;;;;;;5053298;28;20166;-65
2023/10/31 01:53:25;;;;;;;10.40;5.33;;;11.30;99.90;;;;;;5053283;28;20397;-66
2023/10/31 01:55:53;;;;;;;7.33;6.43;;;11.30;1.00;;;;;;5052926;28;20914;-65
2023/10/31 01:58:23;;;;;;;7.40;6.10;;;11.30;1.00;;;;;;5053109;28;20409;-65
2023/10/31 02:00:50;;;;;;;10.30;6.17;;;11.30;1.00;;;;;;5051433;28;20392;-65
2023/10/31 02:03:17;;;;;;;9.83;6.10;;;11.40;1.00;;;;;;5052246;28;20556;-65
2023/10/31 02:05:43;;;;;;;7.43;6.60;;;11.50;1.00;;;;;;5052397;28;20770;-67
2023/10/31 02:08:08;;;;;;;6.27;5.17;;;11.50;1.00;;;;;;5052807;28;20417;-66
2023/10/31 02:10:35;;;;;;;5.53;5.13;;;11.50;1.00;;;;;;5053169;28;20631;-65
2023/10/31 02:13:14;;;;;;;8.90;5.60;;;11.50;1.00;;;;;;5053204;28;20528;-65
2023/10/31 02:15:40;;;;;;;5.67;4.70;;;11.50;1.00;;;;;;5052304;28;20406;-66
2023/10/31 02:18:05;;;;;;;5.73;5.27;;;11.50;1.00;;;;;;5052612;28;20403;-67
2023/10/31 02:20:32;;;;;;;4.90;4.50;;;11.50;1.00;;;;;;5050572;28;20167;-65
2023/10/31 02:22:57;;;;;;;4.07;3.77;;;11.50;1.00;;;;;;5052682;28;20452;-66
2023/10/31 02:25:23;;;;;;;4.60;4.20;;;11.60;1.00;;;;;;5052284;28;20913;-68
2023/10/31 02:27:49;;;;;;;6.37;5.10;;;11.70;1.00;;;;;;5052529;28;20190;-66
2023/10/31 02:30:14;;;;;;;5.33;4.90;;;11.70;1.00;;;;;;5052876;28;20262;-65
2023/10/31 02:32:41;;;;;;;5.07;4.70;;;11.60;1.00;;;;;;5052937;28;20202;-65
2023/10/31 02:35:08;;;;;;;4.47;4.07;;;11.60;1.00;;;;;;5036876;28;20179;-65
2023/10/31 02:37:34;;;;;;;4.13;3.83;;;11.60;1.00;;;;;;5032646;28;20839;-65
2023/10/31 02:40:00;;;;;;;3.63;3.43;;;11.50;1.00;;;;;;5032367;28;20796;-66
2023/10/31 02:42:26;;;;;;;4.27;3.83;;;11.50;1.00;;;;;;5032750;28;20403;-67
2023/10/31 02:44:52;;;;;;;4.73;4.33;;;11.50;1.00;;;;;;5032095;28;20793;-65
2023/10/31 02:47:18;;;;;;;5.17;3.93;;;11.50;1.00;;;;;;5032654;28;20475;-65
2023/10/31 02:49:43;;;;;;;4.87;4.47;;;11.50;1.00;;;;;;5032822;28;20163;-66
2023/10/31 02:52:09;;;;;;;4.13;3.83;;;11.50;1.00;;;;;;5032723;28;20174;-66
2023/10/31 02:54:36;;;;;;;4.50;3.87;;;11.40;1.00;;;;;;5031193;28;20190;-66
2023/10/31 02:57:02;;;;;;;4.23;3.93;;;11.40;1.00;;;;;;5031928;28;20179;-66
2023/10/31 02:59:27;;;;;;;4.40;4.10;;;11.40;1.00;;;;;;5032602;28;20404;-65
2023/10/31 03:01:54;;;;;;;6.73;5.00;;;11.40;1.00;;;;;;5031506;28;20418;-66
2023/10/31 03:04:19;;;;;;;5.10;4.70;;;11.40;1.00;;;;;;5032542;28;20600;-65
2023/10/31 03:06:45;;;;;;;5.20;4.70;;;11.40;1.00;;;;;;5039073;28;20543;-67
2023/10/31 03:09:11;;;;;;;6.13;5.00;;;11.40;1.00;;;;;;5052641;28;20182;-65
2023/10/31 03:11:36;;;;;;;5.67;5.23;;;11.40;1.00;;;;;;5052467;28;20189;-65
2023/10/31 03:14:02;;;;;;;5.80;5.20;;;11.40;1.00;;;;;;5052309;28;20246;-69
2023/10/31 03:16:29;;;;;;;5.97;5.40;;;11.40;1.00;;;;;;5050996;28;20715;-65
2023/10/31 03:18:56;;;;;;;5.43;5.03;;;11.30;1.00;;;;;;5051172;28;20424;-65
2023/10/31 03:21:21;;;;;;;6.93;5.30;;;11.30;1.00;;;;;;5052507;28;20582;-66
2023/10/31 03:23:48;;;;;;;7.73;5.43;;;11.40;1.00;;;;;;5052248;28;20449;-65
2023/10/31 03:26:15;;;;;;;5.63;5.13;;;11.40;1.00;;;;;;5051381;28;20608;-65
2023/10/31 03:28:41;;;;;;;5.63;4.53;;;11.50;1.00;;;;;;5052446;28;20921;-65
2023/10/31 03:31:08;;;;;;;5.20;4.73;;;11.50;1.00;;;;;;5051116;28;21028;-65
2023/10/31 03:33:34;;;;;;;8.73;4.60;;;11.50;1.00;;;;;;5055131;28;20404;-66
2023/10/31 03:35:59;;;;;;;5.57;5.17;;;11.60;1.00;;;;;;5054156;28;20482;-65
2023/10/31 03:38:25;;;;;;;4.80;4.40;;;11.60;1.00;;;;;;5055823;28;20183;-65
2023/10/31 03:40:51;;;;;;;5.37;4.87;;;11.70;1.00;;;;;;5055923;28;20649;-65
2023/10/31 03:43:16;;;;;;;5.43;5.00;;;11.60;1.00;;;;;;5054715;28;20207;-65
2023/10/31 03:45:42;;;;;;;8.03;5.57;;;11.70;1.00;;;;;;5055311;28;20194;-65
2023/10/31 03:48:08;;;;;;;8.03;5.27;;;11.70;1.00;;;;;;5055556;28;20551;-66
2023/10/31 03:50:34;;;;;;;6.30;5.70;;;11.70;1.00;;;;;;5055229;28;20217;-65
2023/10/31 03:52:59;;;;;;;5.67;5.23;;;11.80;1.00;;;;;;5054175;28;20553;-65
2023/10/31 03:55:25;;;;;;;12.43;5.03;;;11.70;1.00;;;;;;5054923;28;20500;-66
2023/10/31 03:57:51;;;;;;;5.70;5.20;;;11.70;1.00;;;;;;5055458;28;20191;-64
2023/10/31 04:00:17;;;;;;;5.97;4.70;;;11.70;1.00;;;;;;5055573;28;20523;-65
2023/10/31 04:02:43;;;;;;;5.20;4.77;;;11.60;1.00;;;;;;5055335;28;20170;-65
2023/10/31 04:05:08;;;;;;;5.10;4.63;;;11.60;1.00;;;;;;5053416;28;20457;-64
2023/10/31 04:07:34;;;;;;;6.20;5.03;;;11.60;1.00;;;;;;5055010;28;20241;-65
2023/10/31 04:10:00;;;;;;;6.20;5.60;;;11.60;1.00;;;;;;5055131;28;20190;-65
2023/10/31 04:12:25;;;;;;;8.53;6.20;;;11.60;1.00;;;;;;5055118;28;20559;-65
2023/10/31 04:14:51;;;;;;;6.77;6.07;;;11.70;1.00;;;;;;5053578;28;20182;-65
2023/10/31 04:17:17;;;;;;;5.83;5.03;;;11.70;1.00;;;;;;5055363;28;20194;-64
2023/10/31 04:19:42;;;;;;;6.33;5.73;;;11.70;1.00;;;;;;5054882;28;20632;-65
2023/10/31 04:22:08;;;;;;;6.13;5.50;;;11.70;1.00;;;;;;5054985;28;20206;-65
2023/10/31 04:24:34;;;;;;;5.53;5.03;;;11.60;1.00;;;;;;5054353;28;20285;-65
2023/10/31 04:26:59;;;;;;;6.33;4.50;;;11.70;1.00;;;;;;5054840;28;20256;-65
2023/10/31 04:29:25;;;;;;;5.43;5.03;;;11.70;1.00;;;;;;5054559;28;20167;-66
2023/10/31 04:31:51;;;;;;;5.23;4.80;;;11.70;1.00;;;;;;5054906;28;20251;-64
2023/10/31 04:34:17;;;;;;;6.33;5.87;;;11.80;1.00;;;;;;5054921;28;20185;-64
2023/10/31 04:36:42;;;;;;;6.83;5.50;;;11.80;1.00;;;;;;5052888;28;20201;-65
2023/10/31 04:39:08;;;;;;;6.20;5.00;;;11.80;1.00;;;;;;5054858;28;20175;-64
2023/10/31 04:41:34;;;;;;;6.03;5.53;;;11.80;1.00;;;;;;5052682;28;20254;-64
2023/10/31 04:43:59;;;;;;;6.10;5.53;;;11.90;1.00;;;;;;5035133;28;20192;-64
2023/10/31 04:46:28;;;;;;;5.40;4.90;;;11.90;1.00;;;;;;5033585;28;20192;-66
2023/10/31 04:48:54;;;;;;;5.77;5.20;;;11.90;1.00;;;;;;5034450;28;20645;-64
2023/10/31 04:51:19;;;;;;;5.97;5.47;;;11.90;1.00;;;;;;5034759;28;20398;-64
2023/10/31 04:53:45;;;;;;;5.67;5.17;;;11.90;1.00;;;;;;5034681;28;20215;-64
2023/10/31 04:56:15;;;;;;;6.13;5.50;;;11.90;1.00;;;;;;5033857;28;20276;-64
2023/10/31 04:58:42;;;;;;;4.97;4.57;;;11.90;1.00;;;;;;5033303;28;20206;-65
2023/10/31 05:01:13;;;;;;;6.40;5.23;;;12.00;1.00;;;;;;5034504;28;20406;-64
2023/10/31 05:03:38;;;;;;;5.30;4.80;;;12.00;1.00;;;;;;5034429;28;20969;-64
2023/10/31 05:06:05;;;;;;;6.07;5.47;;;12.00;1.00;;;;;;5033168;28;20454;-66
2023/10/31 05:08:31;;;;;;;5.43;5.00;;;12.00;1.00;;;;;;5053776;28;20405;-65
2023/10/31 05:10:58;;;;;;;4.97;4.57;;;11.90;1.00;;;;;;5054067;28;20409;-65
2023/10/31 05:13:24;;;;;;;5.47;4.97;;;11.90;1.00;;;;;;5054192;28;20417;-67
2023/10/31 05:15:50;;;;;;;5.80;5.30;;;12.00;1.00;;;;;;5053463;28;20412;-64
2023/10/31 05:18:18;;;;;;;5.73;4.60;;;12.00;1.00;;;;;;5054009;28;20792;-65
2023/10/31 05:20:44;;;;;;;5.47;4.97;;;11.90;1.00;;;;;;5053927;28;20380;-64
2023/10/31 05:23:09;;;;;;;5.90;5.33;;;11.90;1.00;;;;;;5053629;28;20395;-65
2023/10/31 05:25:35;;;;;;;5.73;5.23;;;11.90;1.00;;;;;;5052876;28;20175;-64
2023/10/31 05:28:01;;;;;;;4.87;4.47;;;11.80;1.00;;;;;;5053603;28;20618;-66
2023/10/31 05:30:27;;;;;;;8.40;5.50;;;11.80;1.00;;;;;;5053059;28;20427;-64
2023/10/31 05:32:53;;;;;;;5.63;4.97;;;11.70;1.00;;;;;;5053913;28;20524;-64
2023/10/31 05:35:19;;;;;;;5.13;4.70;;;11.80;1.00;;;;;;5051746;28;20213;-64
2023/10/31 05:37:46;;;;;;;6.10;4.83;;;11.80;1.00;;;;;;5052147;28;20411;-64
2023/10/31 05:40:13;;;;;;;5.50;5.10;;;11.80;1.00;;;;;;5053629;28;20402;-65
2023/10/31 05:42:39;;;;;;;5.43;4.93;;;11.80;1.00;;;;;;5053194;28;20470;-64
2023/10/31 05:45:05;;;;;;;4.90;4.50;;;11.90;1.00;;;;;;5052688;28;20465;-64
2023/10/31 05:47:31;;;;;;;6.47;5.23;;;11.90;1.00;;;;;;5053220;28;20926;-65
2023/10/31 05:49:57;;;;;;;7.00;5.57;;;11.90;1.00;;;;;;5053564;28;20405;-64
2023/10/31 05:52:23;;;;;;;5.73;5.23;;;11.90;1.00;;;;;;5053515;28;20167;-64
2023/10/31 05:54:48;;;;;;;7.83;5.13;;;11.90;1.00;;;;;;5052754;28;20415;-65
2023/10/31 05:57:14;;;;;;;6.10;5.57;;;11.80;1.00;;;;;;5052863;28;20206;-67
2023/10/31 05:59:40;;;;;;;5.40;4.90;;;11.90;1.00;;;;;;5051706;28;20206;-64
2023/10/31 06:02:05;;;;;;;5.73;5.23;;;11.90;1.00;;;;;;5053348;28;20174;-65
2023/10/31 06:04:31;;;;;;;8.97;5.80;;;11.90;1.00;;;;;;5052489;28;20194;-66
2023/10/31 06:06:57;;;;;;;7.00;5.77;;;11.90;1.00;;;;;;5051711;28;20260;-64
2023/10/31 06:09:22;;;;;;;6.07;5.47;;;11.90;1.00;;;;;;5053293;28;20611;-65
2023/10/31 06:11:48;;;;;;;8.30;5.60;;;11.90;1.00;;;;;;5052183;28;20179;-64
2023/10/31 06:14:14;;;;;;;7.47;5.70;;;12.00;1.00;;;;;;5053169;28;20171;-64
2023/10/31 06:16:43;;;;;;;6.40;5.90;;;12.00;1.00;;;;;;5051875;28;20191;-64
2023/10/31 06:19:10;;;;;;;5.90;5.30;;;11.90;1.00;;;;;;5052336;28;20174;-64
2023/10/31 06:21:35;;;;;;;7.47;6.30;;;11.80;1.00;;;;;;5052880;28;20416;-64
2023/10/31 06:24:05;;;;;;;9.07;6.20;;;11.80;1.00;;;;;;5052972;28;20802;-65
2023/10/31 06:26:30;;;;;;;7.03;6.33;;;11.80;1.00;;;;;;5051839;28;20663;-64
2023/10/31 06:28:56;;;;;;;8.27;6.63;;;11.90;1.00;;;;;;5052966;28;20405;-64
2023/10/31 06:31:22;;;;;;;18.13;8.00;;;11.90;1.00;;;;;;5053052;28;20431;-64
2023/10/31 06:33:47;;;;;;;20.80;6.60;;;11.90;1.00;;;;;;5052651;28;20181;-64
2023/10/31 06:36:13;;;;;;;15.83;6.60;;;11.90;1.00;;;;;;5050598;28;20194;-64
2023/10/31 06:38:39;;;;;;;8.87;7.73;;;11.90;1.00;;;;;;5052719;28;20682;-64
2023/10/31 06:41:05;;;;;;;11.30;7.47;;;11.90;1.00;;;;;;5052907;28;20540;-64
2023/10/31 06:43:30;;;;;;;10.90;8.20;;;11.90;1.00;;;;;;5050654;28;20205;-64
2023/10/31 06:46:00;;;;;;;9.07;7.97;;;12.00;1.00;;;;;;5033374;28;20182;-64
2023/10/31 06:48:26;;;;;;;8.07;6.80;;;12.00;1.00;;;;;;5032754;28;20178;-64
2023/10/31 06:50:51;;;;;;;9.50;7.67;;;12.00;1.00;;;;;;5032849;28;20377;-64
2023/10/31 06:53:17;;;;;;;17.10;8.60;;;12.00;1.00;;;;;;5031719;28;20186;-64
2023/10/31 06:55:43;;;;;;;11.40;7.27;;;12.00;1.00;;;;;;5031396;28;20168;-63
2023/10/31 06:58:08;;;;;;;9.83;8.80;;;12.10;1.00;;;;;;5032638;28;20195;-64
2023/10/31 07:00:34;;;;;;;8.70;7.80;;;12.10;1.00;;;;;;5032903;28;20175;-63
2023/10/31 07:03:04;;;;;;;9.50;8.50;;;12.10;1.00;;;;;;5032464;28;20176;-63
2023/10/31 07:05:31;;;;;;;9.03;7.57;;;12.10;1.00;;;;;;5039914;28;20186;-64
2023/10/31 07:07:56;;;;;;;9.97;7.10;;;12.10;1.00;;;;;;5055451;28;20432;-64
2023/10/31 07:10:22;;;;;;;10.67;7.90;;;12.10;1.00;;;;;;5056469;28;20379;-64
2023/10/31 07:12:48;;;;;;;8.20;6.60;;;12.10;1.00;;;;;;5056082;28;20182;-65
2023/10/31 07:15:13;;;;;;;9.67;7.63;;;12.10;1.00;;;;;;5055283;28;20178;-64
2023/10/31 07:17:39;;;;;;;10.07;7.30;;;12.20;1.00;;;;;;5055026;28;20203;-65
2023/10/31 07:20:06;;;;;;;7.97;7.00;;;12.10;1.00;;;;;;5054973;28;20179;-66
2023/10/31 07:22:33;;;;;;;15.57;7.07;;;12.10;1.00;;;;;;5056187;28;20181;-63
2023/10/31 07:25:02;;;;;;;9.97;7.70;;;12.10;1.00;;;;;;5055451;28;20457;-64
2023/10/31 07:27:28;;;;;;;15.97;6.77;;;12.10;1.00;;;;;;5056139;28;20417;-64
2023/10/31 07:29:54;;;;;;;8.57;7.13;;;12.10;1.00;;;;;;5055909;28;20401;-64
2023/10/31 07:32:19;;;;;;;13.77;7.57;;;12.10;1.00;;;;;;5055546;28;20624;-64
2023/10/31 07:34:45;;;;;;;8.70;6.77;;;12.10;1.00;;;;;;5054717;28;20183;-66
2023/10/31 07:37:11;;;;;;;8.03;6.63;;;12.10;1.00;;;;;;5056080;28;20805;-64
2023/10/31 07:39:36;;;;;;;6.23;5.07;;;12.10;1.00;;;;;;5054839;28;20186;-64
2023/10/31 07:42:02;;;;;;;6.60;5.80;;;12.10;1.00;;;;;;5054743;28;20191;-66
2023/10/31 07:44:28;;;;;;;8.77;6.97;;;12.10;1.00;;;;;;5055657;28;20285;-64
2023/10/31 07:46:54;;;;;;;7.80;6.57;;;12.10;1.00;;;;;;5054860;28;20265;-64
2023/10/31 07:49:20;;;;;;;8.03;6.90;;;12.20;1.00;;;;;;5055915;28;20245;-64
2023/10/31 07:51:47;;;;;;;6.90;5.63;;;12.20;1.00;;;;;;5055681;28;20236;-65
2023/10/31 07:54:14;;;;;;;6.23;5.63;;;12.30;1.00;;;;;;5053955;28;20175;-64
2023/10/31 07:56:40;;;;;;;5.60;5.10;;;12.20;1.00;;;;;;5054827;28;20992;-64
2023/10/31 07:59:07;;;;;;;5.07;4.57;;;12.30;1.00;;;;;;5055410;28;20799;-66
2023/10/31 08:01:33;;;;;;;6.37;5.70;;;12.30;1.00;;;;;;5055580;28;20433;-64
2023/10/31 08:03:59;;;;;;;5.07;4.57;;;12.30;1.00;;;;;;5054272;28;20508;-64
2023/10/31 08:06:25;;;;;;;6.17;5.43;;;12.30;1.00;;;;;;5054661;28;20965;-65
2023/10/31 08:08:51;;;;;;;5.57;5.00;;;12.30;1.00;;;;;;5055386;28;20167;-65
2023/10/31 08:11:16;;;;;;;8.63;4.93;;;12.30;1.00;;;;;;5055352;28;20229;-65
2023/10/31 08:13:42;;;;;;;5.77;4.37;;;12.10;1.00;;;;;;5053631;28;20257;-65
2023/10/31 08:16:08;;;;;;;4.40;3.87;;;12.10;1.00;;;;;;5054553;28;20187;-65
2023/10/31 08:18:34;;;;;;;5.10;4.70;;;12.10;1.00;;;;;;5053983;28;20885;-65
2023/10/31 08:21:00;;;;;;;4.57;4.20;;;12.10;1.00;;;;;;5054839;28;20492;-64
2023/10/31 08:23:27;;;;;;;3.30;3.10;;;12.10;1.00;;;;;;5054983;28;20614;-65
2023/10/31 08:25:53;;;;;;;3.03;2.47;;;12.00;1.00;;;;;;5054603;28;20182;-64
2023/10/31 08:28:19;;;;;;;1.73;1.63;;;12.00;1.00;;;;;;5053488;28;20715;-65
2023/10/31 08:30:46;;;;;;;1.77;1.50;;;11.80;1.00;;;;;;5054695;28;20174;-65
2023/10/31 08:33:11;;;;;;;1.70;1.60;;;11.70;1.00;;;;;;5055091;28;20379;-64
2023/10/31 08:35:37;;;;;;;2.70;1.37;;;11.50;1.00;;;;;;5054158;28;20402;-65
2023/10/31 08:38:03;;;;;;;2.33;1.40;;;11.30;1.00;;;;;;5054497;28;20187;-67
2023/10/31 08:40:29;;;;;;;1.67;1.57;;;11.30;1.00;;;;;;5054763;28;20405;-65
2023/10/31 08:42:55;;;;;;;1.60;1.50;;;11.20;1.00;;;;;;5053622;28;20624;-64
2023/10/31 08:45:21;;;;;;;6.90;2.20;;;11.20;1.00;;;;;;5047713;28;20222;-65
2023/10/31 08:47:46;;;;;;;1.57;1.47;;;11.20;1.00;;;;;;5034661;28;20450;-65
2023/10/31 08:50:13;;;;;;;7.80;2.20;;;11.10;1.00;;;;;;5034407;28;20403;-65
2023/10/31 08:52:39;;;;;;;4.73;2.70;;;11.00;1.00;;;;;;5033456;28;20174;-65
2023/10/31 08:55:06;;;;;;;3.73;2.00;;;10.90;1.00;;;;;;5033938;28;20505;-64
2023/10/31 08:57:33;;;;;;;2.53;2.33;;;10.90;1.00;;;;;;5034094;28;20488;-65
2023/10/31 08:59:59;;;;;;;3.67;2.10;;;10.80;1.00;;;;;;5034779;28;20765;-64
2023/10/31 09:02:25;;;;;;;3.53;2.20;;;10.70;1.00;;;;;;5034650;28;20439;-65
2023/10/31 09:04:51;;;;;;;7.87;2.40;;;10.70;1.00;;;;;;5033451;28;20470;-65
2023/10/31 09:07:16;;;;;;;9.50;2.20;;;10.70;1.00;;;;;;5033982;28;20187;-65
2023/10/31 09:09:42;;;;;;;2.97;1.90;;;10.70;1.00;;;;;;5044272;28;20682;-65
2023/10/31 09:12:08;;;;;;;3.07;2.00;;;10.70;1.00;;;;;;5052764;28;20200;-66
2023/10/31 09:14:35;;;;;;;2.33;1.90;;;10.60;1.00;;;;;;5053389;28;20163;-66
2023/10/31 09:17:01;;;;;;;3.43;1.70;;;10.70;1.00;;;;;;5053591;28;20179;-65
2023/10/31 09:19:26;;;;;;;3.43;2.00;;;10.70;1.00;;;;;;5054253;28;20376;-66
2023/10/31 09:21:52;;;;;;;3.83;1.70;;;10.70;1.00;;;;;;5054374;28;20167;-65
2023/10/31 09:24:18;;;;;;;1.40;1.30;;;10.70;1.00;;;;;;5052591;28;20310;-65
2023/10/31 09:26:43;;;;;;;1.60;1.50;;;10.70;1.00;;;;;;5052462;28;20690;-67
2023/10/31 09:29:13;;;;;;;3.37;1.23;;;10.70;1.00;;;;;;5052593;28;20262;-65
2023/10/31 09:31:38;;;;;;;2.60;1.40;;;10.60;1.00;;;;;;5051797;28;20167;-65
2023/10/31 09:34:04;;;;;;;2.50;1.90;;;10.50;1.00;;;;;;5052649;28;20471;-65
2023/10/31 09:36:37;;;;;;;1.50;1.40;;;10.40;1.00;;;;;;5053329;28;20215;-65
2023/10/31 09:39:03;;;;;;;1.70;1.60;;;10.30;1.00;;;;;;5054034;28;20412;-67
2023/10/31 09:41:32;;;;;;;1.60;1.50;;;10.30;1.00;;;;;;5052987;28;20421;-65
2023/10/31 09:43:58;;;;;;;2.33;1.60;;;10.30;1.00;;;;;;5053849;28;20506;-65
2023/10/31 09:46:23;;;;;;;1.50;1.23;;;10.30;1.00;;;;;;5052816;28;20479;-65
2023/10/31 09:48:50;;;;;;;1.90;1.80;;;10.20;1.00;;;;;;5053952;28;20171;-65
2023/10/31 09:51:15;;;;;;;1.80;1.70;;;10.20;1.00;;;;;;5053360;28;20217;-65
2023/10/31 09:53:44;;;;;;;3.23;1.63;;;10.10;1.00;;;;;;5052381;28;20388;-67
2023/10/31 09:56:10;;;;;;;1.73;1.63;;;10.10;1.00;;;;;;5053066;28;20193;-67
2023/10/31 09:58:36;;;;;;;1.90;1.67;;;10.00;1.00;;;;;;5053775;28;20380;-65
2023/10/31 10:01:02;;;;;;;3.07;1.70;;;10.00;1.00;;;;;;5052711;28;20376;-67
2023/10/31 10:03:29;;;;;;;4.23;1.83;;;10.00;1.00;;;;;;5053332;28;20430;-65
2023/10/31 10:05:55;;;;;;;3.20;1.63;;;10.00;1.00;;;;;;5050750;28;20738;-65
2023/10/31 10:08:21;;;;;;;1.57;1.20;;;9.90;1.00;;;;;;5053095;28;20374;-66
2023/10/31 10:10:47;;;;;;;1.30;1.20;;;9.80;1.00;;;;;;5053286;28;20376;-66
2023/10/31 10:13:13;;;;;;;1.43;1.33;;;9.80;1.00;;;;;;5053240;28;20257;-67
2023/10/31 10:15:49;;;;;;;1.70;1.13;;;9.80;1.00;;;;;;5052477;28;20916;-67
2023/10/31 10:18:35;;;;;;;1.20;1.10;;;9.70;1.00;;;;;;5053589;28;20158;-67
2023/10/31 10:21:02;;;;;;;1.30;1.20;;;9.70;1.00;;;;;;5053129;28;20372;-66
2023/10/31 10:23:29;;;;;;;1.20;1.10;;;9.70;1.00;;;;;;5052572;28;20975;-70
2023/10/31 10:25:56;;;;;;;1.30;1.10;;;9.70;1.00;;;;;;5052679;28;20410;-69
2023/10/31 10:28:24;;;;;;;1.33;1.23;;;9.60;1.00;;;;;;5051691;28;20396;-67
2023/10/31 10:30:50;;;;;;;1.20;1.10;;;9.40;1.00;;;;;;5052593;28;20386;-65
2023/10/31 10:33:17;;;;;;;2.73;1.13;;;9.40;1.00;;;;;;5053093;28;20405;-64
2023/10/31 10:35:43;;;;;;;0.90;0.80;;;9.30;1.00;;;;;;5051055;28;20419;-64
2023/10/31 10:38:16;;;;;;;1.20;1.10;;;9.40;1.00;;;;;;5053456;28;20398;-64
2023/10/31 10:40:44;;;;;;;1.10;1.00;;;9.40;1.00;;;;;;5052379;28;20364;-67
2023/10/31 10:43:24;;;;;;;1.17;1.07;;;9.30;1.00;;;;;;5040468;28;20392;-64
2023/10/31 10:45:57;;;;;;;1.20;1.10;;;9.30;1.00;;;;;;5031451;28;20380;-64
2023/10/31 10:48:25;;;;;;;1.30;1.20;;;9.30;1.00;;;;;;5033552;28;20374;-64
2023/10/31 10:51:05;;;;;;;1.30;1.20;;;9.20;1.00;;;;;;5032975;28;20401;-64
2023/10/31 10:53:42;;;;;;;1.00;0.90;;;9.20;1.00;;;;;;5033090;28;20461;-65
2023/10/31 10:56:21;;;;;;;1.30;1.20;;;9.10;1.00;;;;;;5032246;28;20849;-64
2023/10/31 10:59:03;;;;;;;1.30;1.20;;;9.00;1.00;;;;;;5032269;28;20378;-66
2023/10/31 11:01:35;;;;;;;1.40;1.30;;;9.10;1.00;;;;;;5032204;28;20380;-65
2023/10/31 11:04:01;;;;;;;1.67;1.00;;;9.10;1.00;;;;;;5032999;28;20458;-64
2023/10/31 11:06:29;;;;;;;2.10;1.47;;;9.10;1.00;;;;;;5031954;28;20456;-65
2023/10/31 11:08:55;;;;;;;1.23;1.13;;;9.00;1.00;;;;;;5032467;28;20373;-68
2023/10/31 11:11:23;;;;;;;2.07;1.27;;;9.00;1.00;;;;;;5031288;28;20893;-64
2023/10/31 11:13:51;;;;;;;1.50;1.40;;;9.00;1.00;;;;;;5032888;28;20392;-65
2023/10/31 11:16:29;;;;;;;1.30;1.20;;;8.90;1.00;;;;;;5032032;28;20905;-64
2023/10/31 11:18:55;;;;;;;1.87;1.40;;;8.80;1.00;;;;;;5033673;28;20383;-64
2023/10/31 11:21:23;;;;;;;1.70;1.30;;;8.80;1.00;;;;;;5051975;28;20768;-64
2023/10/31 11:23:58;;;;;;;1.70;1.23;;;8.70;1.00;;;;;;5052636;28;20837;-64
2023/10/31 11:26:29;;;;;;;1.40;1.30;;;8.70;1.00;;;;;;5051888;28;20488;-64
2023/10/31 11:29:06;;;;;;;1.77;1.30;;;8.80;1.00;;;;;;5051563;28;20409;-64
2023/10/31 11:31:33;;;;;;;1.73;1.20;;;8.70;1.00;;;;;;5052722;28;20415;-64
2023/10/31 11:34:02;;;;;;;1.40;1.30;;;8.70;1.00;;;;;;5052572;28;20401;-65
2023/10/31 11:36:32;;;;;;;1.40;1.30;;;8.70;1.00;;;;;;5049609;28;20857;-64
2023/10/31 11:39:25;;;;;;;1.30;1.20;;;8.70;1.00;;;;;;5051816;28;20875;-64
2023/10/31 11:41:54;;;;;;;4.43;1.60;;;8.70;1.00;;;;;;5052658;28;20389;-65
2023/10/31 11:44:27;;;;;;;2.20;1.40;;;8.60;1.00;;;;;;5051247;28;20459;-64
2023/10/31 11:46:53;;;;;;;1.40;1.10;;;8.70;1.00;;;;;;5051655;28;20409;-64
2023/10/31 11:49:50;;;;;;;2.70;1.30;;;8.80;1.00;;;;;;5052582;28;20378;-64
2023/10/31 11:52:16;;;;;;;1.80;1.10;;;8.90;1.00;;;;;;5052610;28;20379;-63
2023/10/31 11:54:43;;;;;;;2.03;1.40;;;8.90;1.00;;;;;;5055286;28;20423;-64
2023/10/31 11:57:08;;;;;;;4.30;1.40;;;8.90;1.00;;;;;;5054674;28;20395;-65
2023/10/31 11:59:38;;;;;;;2.80;1.47;;;8.80;1.00;;;;;;5055860;28;20886;-64
2023/10/31 12:02:18;;;;;;;1.50;1.40;;;8.80;1.00;;;;;;5055899;28;20206;-65
2023/10/31 12:04:44;;;;;;;2.40;1.20;;;8.70;1.00;;;;;;5055191;28;20452;-64
2023/10/31 12:07:10;;;;;;;3.73;1.30;;;8.70;1.00;;;;;;5053984;28;20833;-64
2023/10/31 12:09:48;;;;;;;1.70;1.60;;;8.70;1.00;;;;;;5055966;28;20475;-64
2023/10/31 12:12:14;;;;;;;1.10;1.00;;;8.80;1.00;;;;;;5055324;28;20519;-65
2023/10/31 12:14:40;;;;;;;2.37;1.20;;;8.70;1.00;;;;;;5054776;28;20969;-64
2023/10/31 12:17:06;;;;;;;1.40;1.30;;;8.60;1.00;;;;;;5054802;28;20428;-64
2023/10/31 12:19:33;;;;;;;2.90;1.00;;;8.60;99.90;;;;;;5055675;28;20174;-64
2023/10/31 12:21:58;;;;;;;1.40;1.30;;;8.50;99.90;;;;;;5055438;28;20394;-64
2023/10/31 12:24:24;;;;;;;2.50;1.33;;;8.50;99.90;;;;;;5055289;28;20512;-65
2023/10/31 12:26:51;;;;;;;1.60;1.40;;;8.40;99.90;;;;;;5054630;28;20190;-64
2023/10/31 12:29:19;;;;;;;1.40;1.30;;;8.30;99.90;;;;;;5054725;28;20185;-64
2023/10/31 12:31:48;;;;;;;1.60;1.50;;;8.30;99.90;;;;;;5055539;28;20907;-64
2023/10/31 12:34:26;;;;;;;6.80;2.60;;;8.40;99.90;;;;;;5054543;28;20423;-64
2023/10/31 12:36:53;;;;;;;6.17;1.57;;;8.40;99.90;;;;;;5053375;28;20410;-64
2023/10/31 12:39:27;;;;;;;1.60;1.50;;;8.30;99.90;;;;;;5054269;28;20385;-64
2023/10/31 12:41:53;;;;;;;1.93;1.83;;;8.30;99.90;;;;;;5055151;28;20385;-64
2023/10/31 12:44:29;;;;;;;3.47;1.50;;;8.40;99.90;;;;;;5054886;28;20426;-64
2023/10/31 12:46:54;;;;;;;1.70;1.60;;;8.40;99.90;;;;;;5054050;28;20454;-64
2023/10/31 12:49:21;;;;;;;1.83;1.73;;;8.40;99.90;;;;;;5037334;28;20508;-64
2023/10/31 12:52:03;;;;;;;2.43;2.33;;;8.40;99.90;;;;;;5034372;28;20171;-64
2023/10/31 12:54:37;;;;;;;1.60;1.50;;;8.40;99.90;;;;;;5033368;28;20417;-69